Cushing, Utah
Current Conditions -  °F | °C
As of 7:53 PM on Thursday 27 Nov 2014 (Local Time) from KSLC Reporting Station
Broken Clouds Broken Clouds  
Wind Chill: 51°   Ceiling: 15000
Heat Index: 51°   Visibility: 10mi
Dew Point: 25°   Wind: 14mph
Humidity: 36%   Direction: 120°ESE
Pressure: 30.14"   Gusts: NA
Location:  40.615°N, 111.891°W
Report Text: KSLC 280253Z 12012KT 10SM FEW090 BKN150 11/M04 A3014 RMK AO2 SLP191 T01061039 58011
Loading
Personal Weather Stations






























Interactive Weather Map New forecast layout! Learn more

10-Day Weather Forecast

Advertisements
Track Severe Weather on mobile